Broadacre, Colorado
Current Conditions -  °F | °C
As of 10:53 AM on Thursday 29 Jan 2015 (Local Time) from KPUB Reporting Station
Overcast Overcast  
Wind Chill: 44°   Ceiling: 7000
Heat Index: 46°   Visibility: 10mi
Dew Point: 19°   Wind: 5mph
Humidity: 34%   Direction: 130°SE
Pressure: 30.52"   Gusts: NA
Location:  38.0104°N, 104.392°W
Report Text: KPUB 291753Z 13004KT 10SM FEW060 OVC070 08/M07 A3052 RMK AO2 SLP334 T00781072 10083 20028 51008
Loading
Personal Weather Stations






























Interactive Weather Map New forecast layout! Learn more

10-Day Weather Forecast

Advertisements
Track Severe Weather on mobile